createdAt,value
2023-05-05T00:05:11.301Z,95817.00
2023-05-05T00:11:57.733Z,95813.00
2023-05-05T00:17:26.859Z,95808.00
2023-05-05T00:24:29.133Z,95813.00
2023-05-05T00:43:18.979Z,95809.00
2023-05-05T00:48:46.929Z,95796.00
2023-05-05T00:54:15.216Z,95804.00
2023-05-05T00:59:43.778Z,95796.00
2023-05-05T01:05:14.169Z,95797.00
2023-05-05T01:10:59.002Z,95783.00
2023-05-05T01:16:33.464Z,95783.00
2023-05-05T01:22:04.102Z,95792.00
2023-05-05T01:28:33.364Z,95777.00
2023-05-05T01:34:07.860Z,95783.00
2023-05-05T01:39:37.884Z,95783.00
2023-05-05T01:45:09.679Z,95783.00
2023-05-05T01:50:38.349Z,95788.00
2023-05-05T01:56:08.040Z,95792.00
2023-05-05T02:01:49.867Z,95786.00
2023-05-05T02:07:26.404Z,95782.00
2023-05-05T02:13:42.665Z,95795.00
2023-05-05T02:19:13.532Z,95799.00
2023-05-05T02:24:52.258Z,95799.00
2023-05-05T02:30:21.189Z,95789.00
2023-05-05T02:35:54.996Z,95794.00
2023-05-05T02:41:36.618Z,95788.00
2023-05-05T02:47:49.433Z,95800.00
2023-05-05T02:53:57.243Z,95794.00
2023-05-05T03:00:24.374Z,95793.00
2023-05-05T03:06:23.692Z,95785.00
2023-05-05T03:12:07.014Z,95786.00
2023-05-05T03:17:54.501Z,95790.00
2023-05-05T03:23:31.179Z,95798.00
2023-05-05T03:29:00.924Z,95800.00
2023-05-05T03:34:32.298Z,95805.00
2023-05-05T03:40:03.996Z,95798.00
2023-05-05T03:45:33.282Z,95799.00
2023-05-05T03:51:01.526Z,95804.00
2023-05-05T03:56:32.230Z,95796.00
2023-05-05T04:02:00.281Z,95794.00
2023-05-05T04:07:28.227Z,95798.00
2023-05-05T04:12:57.056Z,95808.00
2023-05-05T04:18:25.467Z,95807.00
2023-05-05T04:23:53.717Z,95809.00
2023-05-05T04:29:22.967Z,95806.00
2023-05-05T04:34:51.070Z,95815.00
2023-05-05T04:40:19.817Z,95810.00
2023-05-05T04:45:55.975Z,95822.00
2023-05-05T04:51:28.040Z,95821.00
2023-05-05T04:56:56.576Z,95825.00
2023-05-05T05:02:29.137Z,95824.00
2023-05-05T05:07:57.486Z,95824.00
2023-05-05T05:13:26.305Z,95834.00
2023-05-05T05:18:54.857Z,95837.00
2023-05-05T05:24:25.027Z,95835.00
2023-05-05T05:29:54.621Z,95843.00
2023-05-05T05:35:22.632Z,95851.00
2023-05-05T05:40:50.830Z,95841.00
2023-05-05T05:46:19.465Z,95845.00
2023-05-05T05:51:48.101Z,95846.00
2023-05-05T05:57:16.481Z,95846.00
2023-05-05T06:02:44.627Z,95851.00
2023-05-05T06:08:16.363Z,95850.00
2023-05-05T06:13:49.098Z,95853.00
2023-05-05T06:19:18.870Z,95850.00
2023-05-05T06:24:47.215Z,95862.00
2023-05-05T06:30:17.873Z,95862.00
2023-05-05T06:35:45.835Z,95865.00
2023-05-05T06:41:13.823Z,95875.00
2023-05-05T06:46:43.662Z,95860.00
2023-05-05T06:52:11.645Z,95861.00
2023-05-05T06:57:39.810Z,95867.00
2023-05-05T07:03:09.122Z,95872.00
2023-05-05T07:08:39.281Z,95868.00
2023-05-05T07:14:10.282Z,95873.00
2023-05-05T07:19:44.516Z,95875.00
2023-05-05T07:25:12.759Z,95880.00
2023-05-05T07:30:40.651Z,95881.00
2023-05-05T07:36:09.102Z,95875.00
2023-05-05T07:41:44.699Z,95877.00
2023-05-05T07:47:13.006Z,95882.00
2023-05-05T07:58:11.982Z,95876.00
2023-05-05T08:03:41.748Z,95881.00
2023-05-05T08:09:13.943Z,95878.00
2023-05-05T08:14:43.033Z,95865.00
2023-05-05T08:20:11.221Z,95869.00
2023-05-05T08:25:39.402Z,95867.00
2023-05-05T08:31:11.072Z,95866.00
2023-05-05T08:36:43.707Z,95867.00
2023-05-05T08:42:29.269Z,95855.00
2023-05-05T08:48:19.641Z,95856.00
2023-05-05T08:54:03.923Z,95849.00
2023-05-05T09:00:10.822Z,95864.00
2023-05-05T09:05:44.949Z,95863.00
2023-05-05T09:11:41.486Z,95854.00
2023-05-05T09:17:27.253Z,95851.00
2023-05-05T09:22:55.323Z,95853.00
2023-05-05T09:28:31.428Z,95857.00
2023-05-05T09:34:03.768Z,95863.00
2023-05-05T09:39:35.489Z,95854.00
2023-05-05T09:45:31.569Z,95846.00
2023-05-05T09:51:29.801Z,95842.00
2023-05-05T09:56:58.247Z,95842.00
2023-05-05T10:02:36.642Z,95828.00
2023-05-05T10:08:16.277Z,95832.00
2023-05-05T10:13:45.903Z,95841.00
2023-05-05T10:19:58.829Z,95833.00
2023-05-05T10:25:31.872Z,95829.00
2023-05-05T10:31:12.852Z,95828.00
2023-05-05T10:36:49.670Z,95819.00
2023-05-05T10:42:27.800Z,95816.00
2023-05-05T10:48:01.503Z,95806.00
2023-05-05T10:53:44.727Z,95805.00
2023-05-05T10:59:38.108Z,95803.00
2023-05-05T11:05:26.339Z,95786.00
2023-05-05T11:10:57.949Z,95782.00
2023-05-05T11:16:48.145Z,95775.00
2023-05-05T11:22:16.760Z,95775.00
2023-05-05T11:28:16.943Z,95771.00
2023-05-05T11:33:46.221Z,95770.00
2023-05-05T11:39:55.258Z,95763.00
2023-05-05T11:45:25.009Z,95768.00
2023-05-05T11:50:54.337Z,95770.00
2023-05-05T11:56:23.499Z,95755.00
2023-05-05T12:01:51.989Z,95754.00
2023-05-05T12:13:33.593Z,95759.00
2023-05-05T12:19:11.115Z,95746.00
2023-05-05T12:24:40.268Z,95747.00
2023-05-05T12:30:44.356Z,95745.00
2023-05-05T12:36:12.774Z,95737.00
2023-05-05T12:47:46.637Z,95718.00
2023-05-05T12:53:25.190Z,95719.00
2023-05-05T12:58:55.709Z,95704.00
2023-05-05T13:04:28.208Z,95717.00
2023-05-05T13:10:10.914Z,95702.00
2023-05-05T13:15:41.362Z,95690.00
2023-05-05T13:22:16.292Z,95681.00
2023-05-05T13:27:44.370Z,95672.00
2023-05-05T13:33:12.384Z,95663.00
2023-05-05T13:38:40.929Z,95657.00
2023-05-05T13:44:22.373Z,95642.00
2023-05-05T13:49:51.353Z,95639.00
2023-05-05T13:55:24.496Z,95634.00
2023-05-05T14:00:52.919Z,95623.00
2023-05-05T14:06:20.951Z,95607.00
2023-05-05T14:11:54.882Z,95605.00
2023-05-05T14:17:23.250Z,95605.00
2023-05-05T14:22:50.989Z,95600.00
2023-05-05T14:28:44.964Z,95596.00
2023-05-05T14:34:12.865Z,95595.00
2023-05-05T14:39:53.436Z,95596.00
2023-05-05T14:45:25.046Z,95594.00
2023-05-05T14:51:23.649Z,95595.00
2023-05-05T14:56:53.016Z,95589.00
2023-05-05T15:02:24.556Z,95589.00
2023-05-05T15:07:52.501Z,95583.00
2023-05-05T15:13:20.480Z,95586.00
2023-05-05T15:18:49.461Z,95579.00
2023-05-05T15:24:24.516Z,95580.00
2023-05-05T15:29:55.739Z,95577.00
2023-05-05T15:35:27.317Z,95579.00
2023-05-05T15:41:00.472Z,95570.00
2023-05-05T15:46:39.369Z,95559.00
2023-05-05T15:52:08.018Z,95552.00
2023-05-05T15:57:44.254Z,95553.00
2023-05-05T16:03:16.071Z,95554.00
2023-05-05T16:08:51.457Z,95551.00
2023-05-05T16:14:22.507Z,95552.00
2023-05-05T16:19:50.685Z,95552.00
2023-05-05T16:25:19.909Z,95546.00
2023-05-05T16:30:47.785Z,95536.00
2023-05-05T16:36:16.101Z,95531.00
2023-05-05T16:41:44.209Z,95526.00
2023-05-05T16:47:11.969Z,95526.00
2023-05-05T16:52:39.932Z,95534.00
2023-05-05T16:58:08.028Z,95537.00
2023-05-05T17:03:38.437Z,95540.00
2023-05-05T17:09:06.906Z,95536.00
2023-05-05T17:14:35.640Z,95517.00
2023-05-05T17:20:04.927Z,95514.00
2023-05-05T17:25:33.263Z,95510.00
2023-05-05T17:31:02.293Z,95505.00
2023-05-05T17:36:31.877Z,95502.00
2023-05-05T17:42:00.207Z,95497.00
2023-05-05T17:47:28.843Z,95496.00
2023-05-05T17:52:57.377Z,95487.00
2023-05-05T17:58:25.822Z,95478.00
2023-05-05T18:03:53.939Z,95468.00
2023-05-05T18:09:22.440Z,95458.00
2023-05-05T18:14:50.689Z,95452.00
2023-05-05T18:20:19.119Z,95489.00
2023-05-05T18:25:55.906Z,95493.00
2023-05-05T18:31:25.272Z,95506.00
2023-05-05T18:36:57.225Z,95534.00
2023-05-05T18:42:36.138Z,95539.00
2023-05-05T18:48:04.643Z,95525.00
2023-05-05T18:53:43.362Z,95572.00
2023-05-05T18:59:13.052Z,95669.00
2023-05-05T19:04:41.494Z,95775.00
2023-05-05T19:10:10.751Z,95848.00
2023-05-05T19:15:39.055Z,95849.00
2023-05-05T19:21:08.346Z,95843.00
2023-05-05T19:26:37.303Z,95856.00
2023-05-05T19:32:08.872Z,95868.00
2023-05-05T19:37:39.595Z,95852.00
2023-05-05T19:43:08.670Z,95834.00
2023-05-05T19:48:37.061Z,95821.00
2023-05-05T19:54:13.324Z,95816.00
2023-05-05T19:59:41.907Z,95838.00
2023-05-05T20:05:14.120Z,95836.00
2023-05-05T20:10:42.416Z,95833.00
2023-05-05T20:16:11.167Z,95827.00
2023-05-05T20:21:40.192Z,95822.00
2023-05-05T20:27:08.368Z,95826.00
2023-05-05T20:32:36.862Z,95830.00
2023-05-05T20:38:05.133Z,95846.00
2023-05-05T20:43:34.482Z,95840.00
2023-05-05T20:49:02.709Z,95847.00
2023-05-05T20:54:35.071Z,95837.00
2023-05-05T21:00:04.356Z,95830.00
2023-05-05T21:05:32.503Z,95832.00
2023-05-05T21:11:00.871Z,95819.00
2023-05-05T21:16:29.118Z,95816.00
2023-05-05T21:21:59.321Z,95812.00
2023-05-05T21:27:27.524Z,95810.00
2023-05-05T21:32:55.740Z,95811.00
2023-05-05T21:38:24.198Z,95805.00
2023-05-05T21:43:52.371Z,95810.00
2023-05-05T21:49:20.516Z,95801.00
2023-05-05T21:54:48.729Z,95796.00
2023-05-05T22:00:17.082Z,95796.00
2023-05-05T22:05:45.521Z,95792.00
2023-05-05T22:11:13.728Z,95794.00
2023-05-05T22:16:41.887Z,95795.00
2023-05-05T22:22:10.698Z,95799.00
2023-05-05T22:27:39.103Z,95801.00
2023-05-05T22:33:07.461Z,95800.00
2023-05-05T22:38:35.801Z,95797.00
2023-05-05T22:44:03.985Z,95795.00
2023-05-05T22:49:32.095Z,95794.00
2023-05-05T22:55:00.397Z,95786.00
2023-05-05T23:00:28.690Z,95793.00
2023-05-05T23:05:56.851Z,95786.00
2023-05-05T23:11:25.955Z,95792.00
2023-05-05T23:16:54.293Z,95785.00
2023-05-05T23:22:22.445Z,95780.00
2023-05-05T23:27:50.802Z,95773.00
2023-05-05T23:33:19.514Z,95767.00
2023-05-05T23:38:47.648Z,95768.00
2023-05-05T23:44:15.895Z,95773.00
2023-05-05T23:49:44.312Z,95775.00
2023-05-05T23:55:12.985Z,95778.00
